McAlester, OK

5:11 AM CST on February 01, 2015 (GMT -0600)
Kinkead Hills | Change Station
CLOSE
Current Station
Personal Weather Station
Location: McAlester, OK
Elevation: 808 ft
Nearby Weather Stations

Elev 808 ft 34.90 °N, 95.73 °W | Updated 6 minutes ago

Overcast
Overcast
46.9 °F
Feels Like 47 °F
N
0.0
Wind Variable Wind from South

Today
High -- | Low -- °F
--% Chance of Precip.
Yesterday
High -- | Low -- °F
Precip. -- in
7:22 AM 5:51 PM
Waxing Gibbous, 94% visible
Pressure 29.81 in
Visibility 2.0 miles
Clouds Overcast 300 ft
Windchill 47 °F
Dew Point 44 °F
Humidity 90%
Rainfall 0.06 in
Snow Depth Not available.
UV 0 out of 12
Pollen 3.60 out of 12
Air Quality Not available.
Flu Activity Not available.
METAR KMLC 011053Z AUTO 21007KT 2SM -RA BR OVC003 08/08 A2981 RMK AO2 RAE02B45 SLP095 P0001 T00830078

More Conditions Fewer Conditions

Pressure 29.81 in
Visibility 2.0 miles
Clouds Overcast 300 ft
Windchill 47 °F
Dew Point 44 °F
Humidity 90%
Rainfall 0.06 in
Snow Depth Not available.
UV 0 out of 12
Pollen 3.60 out of 12
Air Quality Not available.
Flu Activity Not available.
METAR KMLC 011053Z AUTO 21007KT 2SM -RA BR OVC003 08/08 A2981 RMK AO2 RAE02B45 SLP095 P0001 T00830078

More Conditions Fewer Conditions

Nowcast | as of 4:38 am CST on February 1, 2015

At 4:15 am...National Weather Service radars indicated scattered areas of light rainfall and areas of drizzle affecting a portion of eastern Oklahoma and west central Arkansas. Through 5:30 am...light rain or drizzle will continue across much of eastern Oklahoma and northwest Arkansas. All precipitation will remain light... and will slowly end from west to east.

×

10-Day Weather Forecast

Almanac

Astronomy

Feb. 01, 2015 Rise Set
Actual Time
Civil Twilight
Nautical Twilight
Astronomical Twilight
Moon
Length of Visible Light
Length of Day
Tomorrow will be .
, % of the Moon is Illuminated

Today's Extremes

State Highs State Lows

Community

WunderPhotos

Upload Photos

1,792,345 photos uploaded!

WunderBlogs® & News

Nearby

Air Quality

  Air Quality AQ Index Pollutant
Not available.

Snow Depth

Station Depth Elevation

Earthquake Activity

City Distance Mag. Time & Date
Minimum magnitude displayed is 2.5.

Coastal Water Temperatures

Place Temperature

Nearby Weather Stations